createdAt,value
2023-05-03T00:00:10.304Z,6.60
2023-05-03T00:02:40.241Z,2.80
2023-05-03T00:05:13.024Z,3.70
2023-05-03T00:07:43.958Z,5.50
2023-05-03T00:10:16.329Z,4.97
2023-05-03T00:12:43.950Z,4.87
2023-05-03T00:15:11.274Z,4.17
2023-05-03T00:17:38.613Z,3.57
2023-05-03T00:20:06.245Z,3.17
2023-05-03T00:22:33.199Z,2.73
2023-05-03T00:25:00.452Z,3.10
2023-05-03T00:27:27.197Z,3.50
2023-05-03T00:29:53.874Z,3.20
2023-05-03T00:32:23.457Z,2.97
2023-05-03T00:34:54.948Z,2.83
2023-05-03T00:37:22.172Z,4.27
2023-05-03T00:39:49.077Z,4.40
2023-05-03T00:42:16.013Z,3.50
2023-05-03T00:44:42.786Z,3.07
2023-05-03T00:47:09.895Z,3.20
2023-05-03T00:49:37.315Z,3.90
2023-05-03T00:52:04.094Z,3.30
2023-05-03T00:54:31.139Z,3.33
2023-05-03T00:56:58.079Z,3.63
2023-05-03T00:59:25.177Z,3.73
2023-05-03T01:01:53.229Z,3.63
2023-05-03T01:04:21.704Z,4.03
2023-05-03T01:06:54.781Z,3.70
2023-05-03T01:09:37.577Z,4.57
2023-05-03T01:12:12.698Z,3.50
2023-05-03T01:15:05.180Z,3.37
2023-05-03T01:17:38.942Z,3.37
2023-05-03T01:20:11.402Z,3.13
2023-05-03T01:22:56.320Z,3.43
2023-05-03T01:25:23.092Z,3.20
2023-05-03T01:27:49.977Z,3.33
2023-05-03T01:30:16.891Z,4.03
2023-05-03T01:32:57.551Z,3.17
2023-05-03T01:35:50.596Z,3.63
2023-05-03T01:38:18.170Z,3.67
2023-05-03T01:40:52.532Z,3.50
2023-05-03T01:43:21.030Z,3.60
2023-05-03T01:45:48.403Z,2.83
2023-05-03T01:48:16.640Z,3.00
2023-05-03T01:50:43.403Z,3.70
2023-05-03T01:53:10.190Z,2.87
2023-05-03T01:55:36.897Z,3.63
2023-05-03T01:58:03.669Z,3.10
2023-05-03T02:00:30.587Z,2.93
2023-05-03T02:02:58.229Z,3.90
2023-05-03T02:05:26.082Z,3.60
2023-05-03T02:07:52.892Z,3.53
2023-05-03T02:10:19.666Z,3.77
2023-05-03T02:12:46.596Z,3.37
2023-05-03T02:15:13.970Z,3.00
2023-05-03T02:17:42.778Z,4.00
2023-05-03T02:20:09.880Z,3.20
2023-05-03T02:22:37.048Z,3.20
2023-05-03T02:25:04.840Z,3.20
2023-05-03T02:27:31.638Z,2.67
2023-05-03T02:29:58.369Z,3.53
2023-05-03T02:32:25.617Z,3.70
2023-05-03T02:34:52.416Z,2.80
2023-05-03T02:37:19.208Z,2.90
2023-05-03T02:39:45.988Z,3.60
2023-05-03T02:42:12.792Z,3.40
2023-05-03T02:44:39.649Z,4.03
2023-05-03T02:47:06.305Z,3.17
2023-05-03T02:49:33.065Z,3.90
2023-05-03T02:51:59.707Z,3.57
2023-05-03T02:54:26.412Z,3.00
2023-05-03T02:56:53.125Z,3.37
2023-05-03T02:59:19.831Z,3.60
2023-05-03T03:01:47.212Z,3.20
2023-05-03T03:04:14.183Z,4.40
2023-05-03T03:06:40.986Z,3.50
2023-05-03T03:09:07.846Z,3.57
2023-05-03T03:11:34.792Z,3.53
2023-05-03T03:14:01.524Z,4.67
2023-05-03T03:16:28.313Z,3.60
2023-05-03T03:18:55.119Z,3.23
2023-05-03T03:21:21.955Z,3.23
2023-05-03T03:23:48.687Z,3.67
2023-05-03T03:26:15.445Z,3.33
2023-05-03T03:28:42.116Z,4.00
2023-05-03T03:31:09.093Z,4.33
2023-05-03T03:33:35.870Z,3.83
2023-05-03T03:36:02.597Z,3.70
2023-05-03T03:38:29.278Z,3.70
2023-05-03T03:40:56.026Z,3.47
2023-05-03T03:43:22.752Z,3.77
2023-05-03T03:45:49.486Z,3.93
2023-05-03T03:48:16.244Z,3.70
2023-05-03T03:50:43.127Z,3.90
2023-05-03T03:53:11.207Z,4.03
2023-05-03T03:55:38.648Z,3.93
2023-05-03T03:58:05.925Z,4.23
2023-05-03T04:00:34.418Z,4.20
2023-05-03T04:03:01.351Z,4.10
2023-05-03T04:05:28.238Z,3.27
2023-05-03T04:07:54.950Z,4.17
2023-05-03T04:10:21.716Z,4.33
2023-05-03T04:12:48.438Z,4.60
2023-05-03T04:15:15.206Z,4.37
2023-05-03T04:17:42.019Z,4.90
2023-05-03T04:20:11.278Z,4.67
2023-05-03T04:22:39.491Z,4.90
2023-05-03T04:25:08.726Z,4.50
2023-05-03T04:27:35.526Z,7.87
2023-05-03T04:30:02.766Z,6.10
2023-05-03T04:32:29.677Z,5.73
2023-05-03T04:34:56.380Z,5.70
2023-05-03T04:37:23.457Z,4.83
2023-05-03T04:39:50.108Z,5.00
2023-05-03T04:42:16.793Z,4.70
2023-05-03T04:44:43.509Z,4.77
2023-05-03T04:47:10.535Z,4.93
2023-05-03T04:49:37.383Z,4.90
2023-05-03T04:52:04.369Z,5.60
2023-05-03T04:54:31.384Z,5.70
2023-05-03T04:56:58.129Z,6.23
2023-05-03T04:59:24.773Z,5.97
2023-05-03T05:01:51.510Z,4.50
2023-05-03T05:04:18.288Z,6.17
2023-05-03T05:06:45.123Z,5.37
2023-05-03T05:09:28.417Z,4.60
2023-05-03T05:11:57.294Z,5.70
2023-05-03T05:14:24.292Z,7.70
2023-05-03T05:16:51.147Z,7.17
2023-05-03T05:19:17.945Z,5.80
2023-05-03T05:21:44.696Z,6.20
2023-05-03T05:24:11.353Z,6.20
2023-05-03T05:26:44.650Z,7.90
2023-05-03T05:29:11.420Z,6.10
2023-05-03T05:31:38.278Z,6.30
2023-05-03T05:34:05.091Z,6.53
2023-05-03T05:36:31.957Z,6.80
2023-05-03T05:38:58.744Z,6.57
2023-05-03T05:41:25.647Z,7.23
2023-05-03T05:43:53.237Z,6.37
2023-05-03T05:46:21.348Z,6.80
2023-05-03T05:48:48.353Z,6.93
2023-05-03T05:51:15.133Z,6.97
2023-05-03T05:53:42.043Z,7.70
2023-05-03T05:56:08.951Z,8.40
2023-05-03T05:58:37.446Z,7.70
2023-05-03T06:01:05.582Z,8.33
2023-05-03T06:03:33.862Z,7.63
2023-05-03T06:06:01.080Z,7.80
2023-05-03T06:08:28.069Z,8.37
2023-05-03T06:10:54.899Z,7.10
2023-05-03T06:13:22.476Z,6.67
2023-05-03T06:15:49.135Z,6.77
2023-05-03T06:18:15.961Z,7.50
2023-05-03T06:20:43.080Z,6.70
2023-05-03T06:23:09.920Z,7.07
2023-05-03T06:25:36.580Z,6.80
2023-05-03T06:28:03.528Z,6.30
2023-05-03T06:30:31.098Z,6.47
2023-05-03T06:32:57.873Z,6.50
2023-05-03T06:35:24.660Z,6.57
2023-05-03T06:37:52.196Z,6.23
2023-05-03T06:40:19.064Z,6.33
2023-05-03T06:42:46.297Z,6.80
2023-05-03T06:45:13.117Z,6.57
2023-05-03T06:47:42.616Z,6.33
2023-05-03T06:50:10.027Z,5.90
2023-05-03T06:52:36.720Z,6.33
2023-05-03T06:55:05.083Z,6.57
2023-05-03T06:57:32.226Z,5.93
2023-05-03T06:59:59.353Z,6.03
2023-05-03T07:02:26.973Z,6.90
2023-05-03T07:04:54.027Z,6.27
2023-05-03T07:07:21.109Z,6.60
2023-05-03T07:09:48.113Z,5.90
2023-05-03T07:12:16.404Z,6.40
2023-05-03T07:14:43.324Z,6.03
2023-05-03T07:17:10.292Z,6.67
2023-05-03T07:19:37.523Z,5.47
2023-05-03T07:22:04.779Z,5.50
2023-05-03T07:24:31.501Z,5.33
2023-05-03T07:26:58.499Z,5.63
2023-05-03T07:29:26.430Z,7.07
2023-05-03T07:31:53.793Z,5.10
2023-05-03T07:34:21.177Z,4.97
2023-05-03T07:36:47.976Z,5.60
2023-05-03T07:39:14.786Z,4.50
2023-05-03T07:41:41.460Z,4.37
2023-05-03T07:44:08.270Z,4.40
2023-05-03T07:46:35.541Z,4.20
2023-05-03T07:49:05.721Z,4.40
2023-05-03T07:51:39.526Z,4.03
2023-05-03T07:54:06.767Z,3.60
2023-05-03T07:56:33.684Z,4.77
2023-05-03T08:01:30.496Z,3.80
2023-05-03T08:03:58.767Z,3.40
2023-05-03T08:06:26.034Z,2.57
2023-05-03T08:08:52.821Z,2.90
2023-05-03T08:11:19.538Z,3.30
2023-05-03T08:13:58.692Z,3.00
2023-05-03T08:16:26.093Z,3.13
2023-05-03T08:18:53.034Z,3.23
